Time;durP1;ratioP1;P1;durP2;ratioP2;P2;SDS_P1;SDS_P2;PMS_P1;PMS_P2;Temp;Humidity;BMP_temperature;BMP_pressure;BME280_temperature;BME280_humidity;BME280_pressure;Samples;Min_cycle;Max_cycle;Signal;HPM_P1;HPM_P2
2023/08/09 00:01:08;;;;;;;17.63;8.20;;;15.60;99.90;;;;;;5052025;28;20460;-66
2023/08/09 00:03:33;;;;;;;16.58;6.00;;;15.50;99.90;;;;;;5051321;28;20435;-66
2023/08/09 00:05:59;;;;;;;16.30;4.97;;;15.50;99.90;;;;;;5052513;28;20032;-66
2023/08/09 00:08:24;;;;;;;11.55;5.45;;;15.40;99.90;;;;;;5052385;28;20062;-66
2023/08/09 00:10:50;;;;;;;12.55;5.60;;;15.40;99.90;;;;;;5052414;28;20021;-67
2023/08/09 00:13:16;;;;;;;20.10;7.57;;;15.30;99.90;;;;;;5052720;28;20060;-67
2023/08/09 00:15:42;;;;;;;12.15;5.18;;;15.30;99.90;;;;;;5052173;28;20084;-66
2023/08/09 00:18:07;;;;;;;9.57;4.47;;;15.20;99.90;;;;;;5052600;28;20033;-66
2023/08/09 00:20:33;;;;;;;15.38;7.50;;;15.20;99.90;;;;;;5052392;28;20044;-66
2023/08/09 00:22:58;;;;;;;12.45;4.80;;;15.20;99.90;;;;;;5052278;28;20087;-66
2023/08/09 00:25:24;;;;;;;16.10;7.00;;;15.10;99.90;;;;;;5052144;28;20043;-66
2023/08/09 00:27:50;;;;;;;12.45;5.43;;;15.10;99.90;;;;;;5052094;28;20028;-66
2023/08/09 00:30:15;;;;;;;14.82;6.15;;;15.10;99.90;;;;;;5052499;28;20412;-66
2023/08/09 00:32:41;;;;;;;15.68;6.90;;;15.00;99.90;;;;;;5052177;28;20021;-66
2023/08/09 00:35:10;;;;;;;11.13;6.15;;;15.00;99.90;;;;;;5052243;28;20056;-66
2023/08/09 00:37:38;;;;;;;11.70;5.28;;;15.00;99.90;;;;;;5052081;28;20051;-66
2023/08/09 00:40:07;;;;;;;10.73;4.97;;;14.90;99.90;;;;;;5052235;28;20032;-66
2023/08/09 00:42:33;;;;;;;13.68;6.10;;;14.90;99.90;;;;;;5051538;28;20039;-67
2023/08/09 00:44:59;;;;;;;16.92;6.30;;;14.90;99.90;;;;;;5051356;28;20033;-67
2023/08/09 00:47:24;;;;;;;14.07;5.57;;;14.80;99.90;;;;;;5051562;28;20032;-66
2023/08/09 00:49:50;;;;;;;14.43;6.00;;;14.80;99.90;;;;;;5052226;28;20021;-67
2023/08/09 00:52:16;;;;;;;13.50;5.90;;;14.70;99.90;;;;;;5051839;28;20025;-66
2023/08/09 00:54:42;;;;;;;9.10;5.05;;;14.70;99.90;;;;;;5055697;28;20025;-66
2023/08/09 00:57:09;;;;;;;13.20;5.75;;;14.70;99.90;;;;;;5056139;28;20449;-66
2023/08/09 00:59:34;;;;;;;14.38;6.10;;;14.60;99.90;;;;;;5054385;28;20052;-67
2023/08/09 01:02:00;;;;;;;13.07;6.07;;;14.60;99.90;;;;;;5056304;28;20064;-66
2023/08/09 01:04:27;;;;;;;16.85;8.38;;;14.60;99.90;;;;;;5055731;28;20452;-66
2023/08/09 01:07:12;;;;;;;14.75;7.22;;;14.50;99.90;;;;;;5055870;28;20029;-67
2023/08/09 01:09:56;;;;;;;14.98;7.85;;;14.50;99.90;;;;;;5055105;28;20147;-66
2023/08/09 01:12:27;;;;;;;17.30;7.57;;;14.40;99.90;;;;;;5055791;28;20075;-66
2023/08/09 01:14:57;;;;;;;13.98;6.72;;;14.40;99.90;;;;;;5055607;28;20110;-66
2023/08/09 01:17:24;;;;;;;16.10;7.15;;;14.30;99.90;;;;;;5055415;28;20033;-66
2023/08/09 01:19:54;;;;;;;14.10;5.90;;;14.30;99.90;;;;;;5055178;28;20553;-66
2023/08/09 01:22:31;;;;;;;15.02;6.88;;;14.30;99.90;;;;;;5055682;28;20074;-66
2023/08/09 01:25:03;;;;;;;16.75;5.55;;;14.20;99.90;;;;;;5055685;28;20124;-68
2023/08/09 01:27:29;;;;;;;14.00;6.43;;;14.20;99.90;;;;;;5055462;28;20036;-66
2023/08/09 01:29:56;;;;;;;13.82;5.95;;;14.20;99.90;;;;;;5054253;28;20056;-67
2023/08/09 01:32:24;;;;;;;13.20;6.00;;;14.20;99.90;;;;;;5055363;28;20056;-66
2023/08/09 01:34:50;;;;;;;15.88;6.45;;;14.20;99.90;;;;;;5054327;28;20049;-66
2023/08/09 01:37:24;;;;;;;14.52;6.50;;;14.10;99.90;;;;;;5055445;28;20036;-66
2023/08/09 01:39:52;;;;;;;14.25;6.35;;;14.10;99.90;;;;;;5055321;28;20090;-67
2023/08/09 01:42:19;;;;;;;18.38;7.03;;;14.10;99.90;;;;;;5055266;28;20099;-66
2023/08/09 01:44:46;;;;;;;13.95;5.68;;;14.10;99.90;;;;;;5055397;28;20485;-66
2023/08/09 01:47:12;;;;;;;13.57;5.45;;;14.10;99.90;;;;;;5054067;28;20029;-66
2023/08/09 01:49:51;;;;;;;10.73;5.32;;;14.10;99.90;;;;;;5054718;28;20516;-67
2023/08/09 01:52:17;;;;;;;15.20;5.68;;;14.10;99.90;;;;;;5055211;28;20139;-66
2023/08/09 01:54:43;;;;;;;13.70;6.20;;;14.10;99.90;;;;;;5055109;28;20112;-66
2023/08/09 01:57:08;;;;;;;12.23;5.85;;;14.10;99.90;;;;;;5054950;28;20044;-66
2023/08/09 01:59:34;;;;;;;14.30;5.57;;;14.10;99.90;;;;;;5054805;28;20021;-66
2023/08/09 02:01:59;;;;;;;10.57;5.47;;;14.10;99.90;;;;;;5053579;28;20017;-66
2023/08/09 02:04:25;;;;;;;12.88;5.30;;;14.20;99.90;;;;;;5054422;28;20029;-66
2023/08/09 02:06:50;;;;;;;12.43;5.40;;;14.20;99.90;;;;;;5054682;28;20025;-67
2023/08/09 02:09:16;;;;;;;11.05;5.53;;;14.20;99.90;;;;;;5055000;28;20427;-67
2023/08/09 02:11:42;;;;;;;12.95;5.43;;;14.20;99.90;;;;;;5054907;28;20369;-67
2023/08/09 02:14:07;;;;;;;15.93;5.22;;;14.20;99.90;;;;;;5053630;28;20029;-66
2023/08/09 02:16:33;;;;;;;12.90;5.70;;;14.20;99.90;;;;;;5054518;28;20083;-66
2023/08/09 02:18:59;;;;;;;15.90;5.70;;;14.20;99.90;;;;;;5054688;28;20025;-66
2023/08/09 02:21:26;;;;;;;13.43;6.05;;;14.20;99.90;;;;;;5054746;28;20021;-66
2023/08/09 02:23:51;;;;;;;12.80;4.63;;;14.10;99.90;;;;;;5054680;28;20029;-66
2023/08/09 02:26:18;;;;;;;12.75;5.70;;;14.10;99.90;;;;;;5053239;28;20029;-66
2023/08/09 02:28:45;;;;;;;12.35;5.30;;;14.10;99.90;;;;;;5054399;28;20029;-66
2023/08/09 02:31:11;;;;;;;9.77;5.20;;;14.00;99.90;;;;;;5054197;28;20476;-67
2023/08/09 02:33:37;;;;;;;12.70;5.90;;;14.00;99.90;;;;;;5054343;28;20082;-68
2023/08/09 02:36:05;;;;;;;17.98;5.97;;;13.90;99.90;;;;;;5054167;28;20084;-66
2023/08/09 02:38:31;;;;;;;13.95;5.85;;;13.80;99.90;;;;;;5054567;28;20032;-66
2023/08/09 02:40:57;;;;;;;16.38;6.68;;;13.80;99.90;;;;;;5054350;28;20036;-66
2023/08/09 02:43:24;;;;;;;15.90;6.40;;;13.80;99.90;;;;;;5054180;28;20028;-68
2023/08/09 02:45:50;;;;;;;12.23;6.47;;;13.70;99.90;;;;;;5053805;28;20047;-67
2023/08/09 02:48:16;;;;;;;14.43;6.35;;;13.70;99.90;;;;;;5054235;28;20082;-67
2023/08/09 02:50:42;;;;;;;13.00;6.15;;;13.60;99.90;;;;;;5054044;28;20465;-65
2023/08/09 02:53:11;;;;;;;15.23;6.55;;;13.60;99.90;;;;;;5053838;28;20029;-66
2023/08/09 02:55:37;;;;;;;13.73;6.45;;;13.60;99.90;;;;;;5053725;28;20068;-66
2023/08/09 02:58:04;;;;;;;13.65;6.00;;;13.60;99.90;;;;;;5052917;28;20055;-67
2023/08/09 03:00:31;;;;;;;14.43;6.72;;;13.50;99.90;;;;;;5053042;28;20033;-67
2023/08/09 03:02:58;;;;;;;12.95;5.97;;;13.50;99.90;;;;;;5053554;28;20029;-67
2023/08/09 03:05:23;;;;;;;16.63;6.90;;;13.50;99.90;;;;;;5053951;28;20064;-67
2023/08/09 03:07:49;;;;;;;16.58;7.47;;;13.40;99.90;;;;;;5053523;28;20069;-67
2023/08/09 03:10:14;;;;;;;13.48;6.13;;;13.40;99.90;;;;;;5053908;28;20037;-67
2023/08/09 03:12:40;;;;;;;17.45;7.60;;;13.40;99.90;;;;;;5053761;28;20021;-68
2023/08/09 03:15:06;;;;;;;16.30;7.15;;;13.40;99.90;;;;;;5053413;28;20389;-66
2023/08/09 03:17:32;;;;;;;15.00;7.78;;;13.40;99.90;;;;;;5053503;28;20377;-67
2023/08/09 03:19:58;;;;;;;16.67;6.70;;;13.40;99.90;;;;;;5053244;28;20028;-66
2023/08/09 03:22:23;;;;;;;12.20;6.40;;;13.40;99.90;;;;;;5053220;28;20407;-67
2023/08/09 03:24:50;;;;;;;13.77;6.05;;;13.40;99.90;;;;;;5053021;28;20033;-67
2023/08/09 03:27:16;;;;;;;12.35;6.15;;;13.30;99.90;;;;;;5052972;28;20028;-66
2023/08/09 03:29:41;;;;;;;15.45;5.97;;;13.30;99.90;;;;;;5052497;28;20373;-66
2023/08/09 03:32:07;;;;;;;17.60;7.10;;;13.30;99.90;;;;;;5052922;28;20423;-67
2023/08/09 03:34:33;;;;;;;14.98;6.45;;;13.20;99.90;;;;;;5051764;28;20041;-67
2023/08/09 03:36:59;;;;;;;15.70;6.80;;;13.20;99.90;;;;;;5053188;28;20037;-67
2023/08/09 03:39:25;;;;;;;13.35;6.60;;;13.10;99.90;;;;;;5052926;28;20075;-67
2023/08/09 03:41:51;;;;;;;15.30;6.95;;;13.10;99.90;;;;;;5053017;28;20033;-67
2023/08/09 03:44:17;;;;;;;18.73;7.75;;;13.00;99.90;;;;;;5052709;28;20036;-67
2023/08/09 03:46:42;;;;;;;15.25;7.88;;;13.00;99.90;;;;;;5053058;28;20086;-67
2023/08/09 03:49:08;;;;;;;16.52;9.15;;;13.00;99.90;;;;;;5053057;28;20032;-67
2023/08/09 03:51:34;;;;;;;18.98;9.43;;;13.00;99.90;;;;;;5052888;28;20530;-67
2023/08/09 03:54:01;;;;;;;17.85;9.00;;;13.00;99.90;;;;;;5052909;28;20029;-67
2023/08/09 03:56:27;;;;;;;18.90;8.50;;;13.00;99.90;;;;;;5052504;28;20033;-67
2023/08/09 03:58:52;;;;;;;14.02;8.10;;;13.00;99.90;;;;;;5052641;28;20067;-67
2023/08/09 04:01:18;;;;;;;13.85;7.20;;;13.00;99.90;;;;;;5052383;28;20032;-67
2023/08/09 04:03:44;;;;;;;14.27;7.63;;;13.00;99.90;;;;;;5052587;28;20027;-67
2023/08/09 04:06:10;;;;;;;17.92;9.73;;;12.90;99.90;;;;;;5053119;28;20037;-66
2023/08/09 04:08:37;;;;;;;20.00;9.70;;;12.90;99.90;;;;;;5052437;28;20037;-67
2023/08/09 04:11:04;;;;;;;17.42;8.82;;;12.90;99.90;;;;;;5052769;28;20143;-66
2023/08/09 04:13:30;;;;;;;18.73;9.73;;;12.90;99.90;;;;;;5051649;28;20037;-67
2023/08/09 04:15:56;;;;;;;19.15;9.15;;;12.90;99.90;;;;;;5052269;28;20080;-66
2023/08/09 04:18:21;;;;;;;17.52;9.02;;;12.90;99.90;;;;;;5052518;28;20468;-66
2023/08/09 04:20:48;;;;;;;16.42;7.32;;;12.90;99.90;;;;;;5052650;28;20112;-66
2023/08/09 04:23:13;;;;;;;14.65;7.20;;;12.90;99.90;;;;;;5052320;28;20461;-66
2023/08/09 04:25:39;;;;;;;12.85;7.47;;;12.90;99.90;;;;;;5052512;28;20109;-66
2023/08/09 04:28:05;;;;;;;18.98;7.55;;;12.90;99.90;;;;;;5051854;28;20032;-67
2023/08/09 04:30:30;;;;;;;14.55;7.45;;;13.00;99.90;;;;;;5051659;28;20703;-67
2023/08/09 04:32:56;;;;;;;16.00;7.63;;;13.00;99.90;;;;;;5051760;28;20040;-67
2023/08/09 04:35:23;;;;;;;13.07;6.47;;;13.00;99.90;;;;;;5050213;28;20057;-67
2023/08/09 04:37:48;;;;;;;16.58;6.80;;;13.00;99.90;;;;;;5052052;28;20354;-66
2023/08/09 04:40:14;;;;;;;12.85;6.82;;;13.00;99.90;;;;;;5052535;28;20095;-67
2023/08/09 04:42:41;;;;;;;13.00;6.53;;;13.10;99.90;;;;;;5051541;28;20537;-66
2023/08/09 04:45:10;;;;;;;14.20;6.53;;;13.20;99.90;;;;;;5052394;28;20033;-66
2023/08/09 04:47:36;;;;;;;11.55;5.88;;;13.20;99.90;;;;;;5052233;28;20067;-66
2023/08/09 04:50:05;;;;;;;13.38;6.22;;;13.30;99.90;;;;;;5052097;28;20064;-66
2023/08/09 04:52:33;;;;;;;15.68;5.72;;;13.40;99.90;;;;;;5052336;28;20049;-67
2023/08/09 04:54:59;;;;;;;13.43;5.50;;;13.50;99.90;;;;;;5051770;28;20061;-67
2023/08/09 04:57:25;;;;;;;12.52;5.50;;;13.60;99.90;;;;;;5052111;28;20419;-66
2023/08/09 04:59:51;;;;;;;11.13;5.82;;;13.70;99.90;;;;;;5051760;28;20472;-67
2023/08/09 05:02:16;;;;;;;10.73;5.25;;;13.80;99.90;;;;;;5052415;28;20036;-67
2023/08/09 05:04:42;;;;;;;10.23;4.97;;;13.90;99.90;;;;;;5052269;28;20037;-67
2023/08/09 05:07:08;;;;;;;15.65;5.47;;;14.00;99.90;;;;;;5051593;28;20373;-66
2023/08/09 05:09:34;;;;;;;11.55;5.15;;;14.20;99.90;;;;;;5051821;28;20075;-67
2023/08/09 05:11:59;;;;;;;16.40;5.00;;;14.40;99.90;;;;;;5051599;28;20036;-67
2023/08/09 05:14:28;;;;;;;11.45;4.68;;;14.50;99.90;;;;;;5051837;28;20021;-67
2023/08/09 05:16:54;;;;;;;14.88;4.63;;;14.70;99.90;;;;;;5051494;28;20095;-68
2023/08/09 05:19:20;;;;;;;9.73;4.53;;;14.80;99.90;;;;;;5050875;28;20061;-67
2023/08/09 05:21:46;;;;;;;13.95;4.63;;;15.00;99.90;;;;;;5051397;28;20029;-67
2023/08/09 05:24:12;;;;;;;8.48;3.90;;;15.20;99.90;;;;;;5051176;28;20065;-68
2023/08/09 05:26:38;;;;;;;8.60;4.47;;;15.30;99.90;;;;;;5051420;28;20106;-67
2023/08/09 05:29:04;;;;;;;14.18;4.50;;;15.50;99.90;;;;;;5051984;28;20364;-67
2023/08/09 05:31:29;;;;;;;10.90;4.82;;;15.60;99.90;;;;;;5051060;28;20053;-66
2023/08/09 05:33:56;;;;;;;11.65;4.07;;;15.70;99.90;;;;;;5051059;28;20148;-67
2023/08/09 05:36:23;;;;;;;11.05;4.00;;;15.90;99.90;;;;;;5051821;28;20047;-66
2023/08/09 05:38:49;;;;;;;11.32;3.83;;;16.00;99.90;;;;;;5051820;28;20271;-67
2023/08/09 05:41:15;;;;;;;10.75;4.13;;;16.00;99.90;;;;;;5053782;28;20509;-68
2023/08/09 05:43:40;;;;;;;8.35;3.50;;;16.10;99.90;;;;;;5055615;28;20033;-66
2023/08/09 05:46:06;;;;;;;9.43;3.60;;;16.20;99.90;;;;;;5054208;28;20447;-67
2023/08/09 05:48:32;;;;;;;8.30;3.53;;;16.20;99.90;;;;;;5055538;28;20136;-67
2023/08/09 05:50:57;;;;;;;11.07;3.80;;;16.30;99.90;;;;;;5054994;28;20037;-67
2023/08/09 05:53:23;;;;;;;10.57;3.65;;;16.30;99.90;;;;;;5054337;28;20029;-67
2023/08/09 05:55:49;;;;;;;14.25;3.80;;;16.30;99.90;;;;;;5055361;28;20396;-67
2023/08/09 05:58:15;;;;;;;11.20;4.13;;;16.20;99.90;;;;;;5055021;28;20037;-67
2023/08/09 06:00:41;;;;;;;9.82;4.55;;;16.30;99.90;;;;;;5054893;28;20071;-67
2023/08/09 06:03:07;;;;;;;10.07;3.75;;;16.20;99.90;;;;;;5054963;28;20029;-67
2023/08/09 06:05:32;;;;;;;10.23;3.85;;;16.20;99.90;;;;;;5054631;28;20120;-68
2023/08/09 06:07:58;;;;;;;9.95;4.20;;;16.20;99.90;;;;;;5053563;28;20440;-67
2023/08/09 06:10:25;;;;;;;11.43;3.63;;;16.30;99.90;;;;;;5054594;28;20053;-66
2023/08/09 06:12:51;;;;;;;9.13;3.72;;;16.40;99.90;;;;;;5054110;28;20037;-66
2023/08/09 06:15:17;;;;;;;11.20;3.60;;;16.50;99.90;;;;;;5054680;28;20461;-68
2023/08/09 06:17:43;;;;;;;12.02;3.95;;;16.60;99.90;;;;;;5054566;28;20036;-67
2023/08/09 06:20:09;;;;;;;11.07;4.28;;;16.80;99.90;;;;;;5054365;28;20049;-68
2023/08/09 06:22:34;;;;;;;11.30;3.97;;;17.10;99.90;;;;;;5053217;28;20030;-67
2023/08/09 06:25:01;;;;;;;10.23;3.45;;;17.40;99.90;;;;;;5053785;28;20041;-67
2023/08/09 06:27:26;;;;;;;8.65;3.33;;;17.80;99.90;;;;;;5051194;28;20068;-67
2023/08/09 06:29:52;;;;;;;8.52;3.35;;;18.40;99.90;;;;;;5054078;28;20064;-67
2023/08/09 06:32:17;;;;;;;10.07;3.55;;;19.10;99.90;;;;;;5054594;28;20423;-67
2023/08/09 06:34:43;;;;;;;13.10;6.15;;;20.00;99.90;;;;;;5054511;28;20435;-68
2023/08/09 06:37:09;;;;;;;10.68;3.08;;;21.00;99.90;;;;;;5054221;28;20461;-68
2023/08/09 06:39:34;;;;;;;9.90;3.58;;;22.00;99.90;;;;;;5054553;28;20464;-67
2023/08/09 06:42:00;;;;;;;10.80;3.42;;;23.10;99.90;;;;;;5053924;28;20029;-66
2023/08/09 06:44:26;;;;;;;16.98;6.75;;;24.30;99.90;;;;;;5053183;28;20033;-66
2023/08/09 06:46:53;;;;;;;12.02;4.90;;;25.30;99.90;;;;;;5053900;28;20484;-65
2023/08/09 06:49:21;;;;;;;15.98;6.55;;;26.10;99.90;;;;;;5054218;28;20065;-67
2023/08/09 06:51:46;;;;;;;8.77;2.95;;;26.80;99.90;;;;;;5051800;28;20025;-67
2023/08/09 06:54:12;;;;;;;9.40;3.83;;;27.40;99.90;;;;;;5054274;28;20354;-66
2023/08/09 06:56:38;;;;;;;8.38;2.53;;;28.20;99.90;;;;;;5052993;28;20424;-67
2023/08/09 06:59:04;;;;;;;6.03;2.30;;;28.90;99.20;;;;;;5054021;28;20582;-66
2023/08/09 07:01:30;;;;;;;7.32;2.70;;;29.60;97.30;;;;;;5052858;28;20078;-67
2023/08/09 07:03:56;;;;;;;10.70;4.43;;;30.30;97.10;;;;;;5052242;28;20427;-67
2023/08/09 07:06:22;;;;;;;7.70;3.13;;;31.00;95.90;;;;;;5050067;28;20025;-67
2023/08/09 07:08:48;;;;;;;12.93;6.35;;;31.70;95.50;;;;;;5051948;28;20037;-67
2023/08/09 07:11:14;;;;;;;8.00;3.53;;;32.50;94.40;;;;;;5050707;28;20036;-67
2023/08/09 07:13:40;;;;;;;7.70;4.25;;;32.80;93.70;;;;;;5052431;28;20027;-67
2023/08/09 07:16:05;;;;;;;8.70;4.00;;;32.30;93.30;;;;;;5052291;28;20124;-67
2023/08/09 07:18:31;;;;;;;6.32;2.97;;;31.10;93.60;;;;;;5053427;28;20025;-67
2023/08/09 07:20:57;;;;;;;10.63;3.90;;;29.70;94.50;;;;;;5052572;28;20017;-66
2023/08/09 07:23:23;;;;;;;14.00;6.15;;;28.30;95.70;;;;;;5048572;28;20036;-66
2023/08/09 07:25:48;;;;;;;9.95;5.10;;;27.10;97.10;;;;;;5053637;28;20388;-67
2023/08/09 07:28:14;;;;;;;12.10;5.32;;;26.20;98.40;;;;;;5053346;28;20393;-67
2023/08/09 07:30:39;;;;;;;5.28;2.25;;;25.40;99.80;;;;;;5053751;28;20051;-67
2023/08/09 07:33:06;;;;;;;14.02;6.68;;;24.80;99.90;;;;;;5052991;28;20484;-66
2023/08/09 07:35:31;;;;;;;8.38;3.67;;;24.50;99.90;;;;;;5052526;28;20374;-66
2023/08/09 07:37:57;;;;;;;12.77;5.72;;;24.40;99.90;;;;;;5053136;28;20091;-66
2023/08/09 07:40:23;;;;;;;9.05;3.28;;;24.40;99.90;;;;;;5052833;28;20595;-67
2023/08/09 07:42:48;;;;;;;13.27;4.72;;;24.50;99.90;;;;;;5052778;28;20032;-66
2023/08/09 07:45:14;;;;;;;8.20;3.80;;;24.60;99.90;;;;;;5053399;28;20063;-66
2023/08/09 07:47:40;;;;;;;8.85;4.43;;;24.60;99.90;;;;;;5053069;28;20342;-66
2023/08/09 07:50:07;;;;;;;14.35;6.90;;;24.50;99.90;;;;;;5053220;28;20081;-66
2023/08/09 07:52:33;;;;;;;8.65;3.20;;;24.50;99.90;;;;;;5053232;28;20028;-66
2023/08/09 07:54:59;;;;;;;7.43;2.80;;;24.60;99.90;;;;;;5051837;28;20035;-66
2023/08/09 07:57:25;;;;;;;8.52;2.72;;;24.70;99.90;;;;;;5052828;28;20021;-67
2023/08/09 07:59:50;;;;;;;8.10;3.30;;;25.00;99.90;;;;;;5052666;28;20035;-66
2023/08/09 08:02:16;;;;;;;9.60;4.25;;;25.00;99.90;;;;;;5052587;28;20040;-66
2023/08/09 08:04:42;;;;;;;6.95;3.28;;;24.50;99.90;;;;;;5050939;28;20021;-66
2023/08/09 08:07:10;;;;;;;6.03;2.90;;;24.00;99.90;;;;;;5052067;28;20032;-66
2023/08/09 08:09:41;;;;;;;6.70;3.60;;;23.90;99.90;;;;;;5052487;28;20025;-66
2023/08/09 08:12:08;;;;;;;6.95;3.08;;;24.50;99.90;;;;;;5051583;28;20032;-66
2023/08/09 08:14:35;;;;;;;10.00;4.38;;;25.40;99.90;;;;;;5052296;28;20040;-66
2023/08/09 08:17:01;;;;;;;10.70;4.63;;;25.80;99.90;;;;;;5051885;28;20045;-66
2023/08/09 08:19:26;;;;;;;13.88;5.18;;;25.60;99.90;;;;;;5052486;28;20021;-66
2023/08/09 08:21:52;;;;;;;11.65;4.13;;;25.50;99.90;;;;;;5052525;28;20036;-66
2023/08/09 08:24:18;;;;;;;8.38;3.45;;;25.30;99.90;;;;;;5051878;28;20079;-67
2023/08/09 08:26:44;;;;;;;9.60;3.35;;;25.10;99.90;;;;;;5050276;28;20025;-67
2023/08/09 08:29:09;;;;;;;12.30;3.20;;;25.90;99.90;;;;;;5051377;28;20385;-66
2023/08/09 08:31:35;;;;;;;9.93;4.07;;;26.90;99.20;;;;;;5051276;28;20388;-66
2023/08/09 08:34:00;;;;;;;10.52;4.53;;;27.20;98.70;;;;;;5051968;28;20136;-66
2023/08/09 08:36:26;;;;;;;14.50;4.95;;;26.90;99.20;;;;;;5051564;28;20060;-65
2023/08/09 08:38:52;;;;;;;15.95;5.57;;;27.10;98.90;;;;;;5050111;28;20487;-66
2023/08/09 08:41:18;;;;;;;16.00;4.75;;;27.40;98.30;;;;;;5052585;28;20079;-66
2023/08/09 08:43:45;;;;;;;11.18;4.45;;;27.20;98.50;;;;;;5052386;28;20391;-66
2023/08/09 08:46:16;;;;;;;14.57;4.43;;;26.70;98.80;;;;;;5052017;28;20040;-66
2023/08/09 08:48:47;;;;;;;;;;;26.30;99.60;;;;;;5052718;28;20082;-65
2023/08/09 08:51:13;;;;;;;10.70;4.68;;;26.70;98.60;;;;;;5052387;28;19950;-66
2023/08/09 08:53:39;;;;;;;11.68;3.78;;;26.60;98.60;;;;;;5052388;28;20032;-67
2023/08/09 08:56:05;;;;;;;10.57;4.07;;;26.10;99.20;;;;;;5051989;28;20431;-66
2023/08/09 08:58:31;;;;;;;12.07;4.28;;;25.80;99.90;;;;;;5051609;28;20037;-66
2023/08/09 09:00:57;;;;;;;12.07;4.60;;;25.70;99.70;;;;;;5052253;28;20025;-65
2023/08/09 09:03:22;;;;;;;11.98;4.40;;;25.40;99.90;;;;;;5051580;28;20036;-66
2023/08/09 09:05:48;;;;;;;9.93;4.65;;;25.40;99.90;;;;;;5052207;28;20032;-65
2023/08/09 09:08:14;;;;;;;7.78;3.42;;;25.30;99.90;;;;;;5052263;28;20044;-66
2023/08/09 09:10:45;;;;;;;9.35;4.00;;;26.10;99.40;;;;;;5051583;28;20102;-66
2023/08/09 09:13:23;;;;;;;7.20;3.53;;;27.10;98.20;;;;;;5050516;28;20067;-66
2023/08/09 09:15:49;;;;;;;7.45;3.08;;;27.40;97.90;;;;;;5054446;28;20082;-66
2023/08/09 09:18:15;;;;;;;6.13;3.15;;;27.50;97.50;;;;;;5055909;28;20028;-66
2023/08/09 09:20:41;;;;;;;10.35;3.95;;;27.40;97.40;;;;;;5055698;28;20036;-66
2023/08/09 09:23:07;;;;;;;10.90;3.72;;;27.10;97.80;;;;;;5055732;28;20051;-66
2023/08/09 09:25:33;;;;;;;7.63;3.42;;;27.30;97.70;;;;;;5055785;28;20047;-66
2023/08/09 09:27:59;;;;;;;6.68;2.60;;;27.70;96.80;;;;;;5055854;28;20025;-66
2023/08/09 09:30:29;;;;;;;10.57;2.80;;;27.80;96.60;;;;;;5056074;28;20090;-66
2023/08/09 09:32:58;;;;;;;11.52;3.20;;;27.70;96.70;;;;;;5056078;28;20033;-66
2023/08/09 09:35:27;;;;;;;8.07;3.88;;;27.80;96.60;;;;;;5055472;28;20140;-66
2023/08/09 09:37:54;;;;;;;11.90;4.22;;;27.90;96.50;;;;;;5055838;28;20449;-66
2023/08/09 09:40:28;;;;;;;8.30;2.72;;;28.20;96.60;;;;;;5055545;28;20033;-66
2023/08/09 09:42:55;;;;;;;9.75;3.17;;;28.40;96.10;;;;;;5055769;28;20068;-66
2023/08/09 09:45:23;;;;;;;10.55;4.35;;;28.80;95.80;;;;;;5055606;28;20037;-66
2023/08/09 09:47:49;;;;;;;13.13;2.85;;;29.20;95.60;;;;;;5055404;28;20040;-66
2023/08/09 09:50:16;;;;;;;8.75;3.13;;;29.60;95.30;;;;;;5055612;28;20029;-66
2023/08/09 09:52:42;;;;;;;7.72;2.78;;;30.10;94.20;;;;;;5055494;28;20028;-66
2023/08/09 09:55:08;;;;;;;7.47;2.30;;;30.50;93.70;;;;;;5055052;28;20043;-66
2023/08/09 09:57:34;;;;;;;9.77;2.90;;;30.70;93.40;;;;;;5055254;28;20362;-66
2023/08/09 10:00:06;;;;;;;7.45;2.33;;;30.40;93.20;;;;;;5055483;28;20108;-67
2023/08/09 10:02:38;;;;;;;;;;;30.20;93.50;;;;;;5055925;28;20075;-65
2023/08/09 10:05:10;;;;;;;6.63;1.92;;;30.30;93.50;;;;;;5055419;28;19904;-66
2023/08/09 10:07:36;;;;;;;;;;;30.60;93.30;;;;;;5055556;28;20408;-66
2023/08/09 10:10:04;;;;;;;7.28;1.90;;;31.40;92.90;;;;;;5054841;28;20426;-66
2023/08/09 10:12:33;;;;;;;8.98;2.33;;;32.40;91.90;;;;;;5053694;28;20397;-66
2023/08/09 10:15:00;;;;;;;8.40;1.90;;;33.10;91.20;;;;;;5055129;28;20462;-66
2023/08/09 10:17:29;;;;;;;10.50;3.80;;;33.40;90.20;;;;;;5054724;28;20473;-66
2023/08/09 10:19:57;;;;;;;17.77;5.30;;;32.70;90.60;;;;;;5054835;28;20167;-65
2023/08/09 10:22:23;;;;;;;8.93;2.40;;;31.90;91.10;;;;;;5054862;28;20025;-66
2023/08/09 10:24:51;;;;;;;7.10;2.03;;;31.50;92.00;;;;;;5055012;28;20029;-66
2023/08/09 10:27:51;;;;;;;7.25;2.72;;;30.80;92.60;;;;;;5053997;28;20396;-65
2023/08/09 10:30:19;;;;;;;11.25;2.50;;;30.10;93.50;;;;;;5054654;28;20090;-66
2023/08/09 10:32:54;;;;;;;10.77;2.65;;;30.10;93.10;;;;;;5054879;28;20578;-66
2023/08/09 10:35:40;;;;;;;7.25;1.95;;;30.00;92.70;;;;;;5053906;28;20053;-66
2023/08/09 10:38:07;;;;;;;6.93;2.50;;;30.00;93.00;;;;;;5054156;28;20469;-65
2023/08/09 10:40:35;;;;;;;6.20;1.83;;;30.50;92.60;;;;;;5053381;28;20135;-65
2023/08/09 10:43:01;;;;;;;3.65;1.55;;;30.90;92.30;;;;;;5054600;28;20033;-65
2023/08/09 10:45:30;;;;;;;4.30;1.70;;;30.80;92.20;;;;;;5054316;28;20131;-66
2023/08/09 10:48:16;;;;;;;6.97;1.83;;;31.00;92.10;;;;;;5054397;28;20029;-65
2023/08/09 10:50:42;;;;;;;6.28;1.65;;;31.10;91.80;;;;;;5054435;28;20396;-66
2023/08/09 10:53:07;;;;;;;10.90;1.92;;;30.70;92.00;;;;;;5054242;28;20029;-66
2023/08/09 10:55:33;;;;;;;5.88;1.80;;;30.60;92.10;;;;;;5053854;28;20043;-65
2023/08/09 10:58:00;;;;;;;8.80;1.60;;;31.30;91.50;;;;;;5054375;28;20136;-65
2023/08/09 11:00:28;;;;;;;9.73;2.22;;;31.90;91.10;;;;;;5054073;28;20028;-66
2023/08/09 11:02:58;;;;;;;8.45;2.50;;;32.70;90.60;;;;;;5052944;28;20028;-65
2023/08/09 11:05:27;;;;;;;7.83;2.67;;;33.40;89.40;;;;;;5052885;28;20048;-65
2023/08/09 11:07:56;;;;;;;7.22;1.40;;;33.80;88.70;;;;;;5053762;28;20461;-66
2023/08/09 11:10:52;;;;;;;12.23;3.65;;;33.50;88.20;;;;;;5053962;28;20079;-66
2023/08/09 11:13:18;;;;;;;10.00;1.83;;;32.50;88.40;;;;;;5049306;28;20041;-65
2023/08/09 11:15:50;;;;;;;7.07;2.15;;;31.70;89.90;;;;;;5053736;28;20037;-65
2023/08/09 11:18:15;;;;;;;7.57;1.70;;;31.60;90.50;;;;;;5053561;28;20491;-65
2023/08/09 11:20:41;;;;;;;3.83;1.58;;;32.10;89.50;;;;;;5054037;28;20041;-66
2023/08/09 11:23:07;;;;;;;5.70;1.33;;;32.90;89.10;;;;;;5053209;28;20052;-66
2023/08/09 11:25:33;;;;;;;4.97;1.45;;;33.60;86.80;;;;;;5057275;28;20111;-65
2023/08/09 11:28:02;;;;;;;7.47;1.73;;;34.30;86.10;;;;;;5073868;28;20028;-65
2023/08/09 11:30:31;;;;;;;6.90;1.73;;;35.00;85.70;;;;;;5064734;28;20055;-65
2023/08/09 11:33:01;;;;;;;6.65;1.60;;;35.20;83.50;;;;;;5053027;28;20043;-65
2023/08/09 11:35:47;;;;;;;4.60;1.17;;;34.70;83.40;;;;;;5053418;28;20081;-65
2023/08/09 11:38:16;;;;;;;4.22;1.75;;;34.70;83.20;;;;;;5055783;28;20052;-65
2023/08/09 11:40:48;;;;;;;5.90;1.90;;;34.60;83.50;;;;;;5073497;28;20028;-65
2023/08/09 11:43:16;;;;;;;6.65;1.95;;;34.70;83.00;;;;;;5072994;28;20375;-65
2023/08/09 11:45:48;;;;;;;7.70;1.45;;;34.80;83.60;;;;;;5073284;28;20028;-65
2023/08/09 11:48:30;;;;;;;5.80;1.30;;;34.80;82.50;;;;;;5073260;28;20028;-65
2023/08/09 11:51:19;;;;;;;5.38;1.52;;;34.90;82.70;;;;;;5073327;28;20081;-66
2023/08/09 11:53:48;;;;;;;4.13;1.75;;;34.90;82.30;;;;;;5073203;28;20487;-66
2023/08/09 11:56:20;;;;;;;5.95;1.63;;;34.90;82.60;;;;;;5062689;28;20469;-65
2023/08/09 11:58:51;;;;;;;;;;;34.80;81.40;;;;;;5053196;28;20021;-65
2023/08/09 12:01:25;;;;;;;6.20;1.35;;;35.00;81.20;;;;;;5048439;28;19905;-65
2023/08/09 12:03:57;;;;;;;7.07;1.73;;;34.60;81.80;;;;;;5052792;28;20103;-66
2023/08/09 12:06:42;;;;;;;6.30;1.65;;;34.50;81.50;;;;;;5052564;28;20360;-66
2023/08/09 12:09:39;;;;;;;6.65;1.52;;;34.50;80.80;;;;;;5053017;28;20039;-65
2023/08/09 12:12:12;;;;;;;5.03;1.30;;;34.20;80.90;;;;;;5052149;28;20040;-65
2023/08/09 12:14:44;;;;;;;7.47;1.40;;;34.30;80.60;;;;;;5052587;28;20528;-65
2023/08/09 12:17:21;;;;;;;4.28;1.35;;;34.30;81.40;;;;;;5052355;28;20594;-65
2023/08/09 12:19:47;;;;;;;3.65;1.10;;;34.40;80.70;;;;;;5052234;28;20029;-65
2023/08/09 12:22:14;;;;;;;7.28;1.63;;;34.10;80.70;;;;;;5051211;28;20485;-65
2023/08/09 12:24:40;;;;;;;6.10;1.15;;;34.10;80.50;;;;;;5052731;28;20595;-66
2023/08/09 12:27:06;;;;;;;8.23;1.77;;;34.20;80.10;;;;;;5052582;28;20025;-66
2023/08/09 12:29:31;;;;;;;6.32;1.40;;;34.20;80.50;;;;;;5056047;28;20039;-66
2023/08/09 12:31:59;;;;;;;6.50;2.13;;;34.00;80.20;;;;;;5071262;28;20111;-65
2023/08/09 12:34:24;;;;;;;9.43;1.42;;;33.40;81.00;;;;;;5071586;28;20060;-65
2023/08/09 12:36:50;;;;;;;5.28;1.45;;;32.60;81.50;;;;;;5071624;28;20529;-65
2023/08/09 12:39:15;;;;;;;3.85;1.15;;;32.30;82.50;;;;;;5056815;28;20036;-65
2023/08/09 12:41:42;;;;;;;7.07;1.27;;;32.20;82.20;;;;;;5066232;28;20060;-65